sensor_id;sensor_type;location;lat;lon;timestamp;P1;durP1;ratioP1;P2;durP2;ratioP2
58928;SDS011;44713;53.378;10.022;2023-04-08T00:00:57;14.35;;;8.40;;
58928;SDS011;44713;53.378;10.022;2023-04-08T00:03:22;13.27;;;8.95;;
58928;SDS011;44713;53.378;10.022;2023-04-08T00:05:48;16.35;;;8.57;;
58928;SDS011;44713;53.378;10.022;2023-04-08T00:08:13;18.00;;;10.10;;
58928;SDS011;44713;53.378;10.022;2023-04-08T00:10:38;17.42;;;9.35;;
58928;SDS011;44713;53.378;10.022;2023-04-08T00:13:04;15.48;;;9.25;;
58928;SDS011;44713;53.378;10.022;2023-04-08T00:15:29;18.50;;;9.25;;
58928;SDS011;44713;53.378;10.022;2023-04-08T00:17:55;19.15;;;10.05;;
58928;SDS011;44713;53.378;10.022;2023-04-08T00:20:21;16.48;;;10.27;;
58928;SDS011;44713;53.378;10.022;2023-04-08T00:22:48;18.77;;;9.63;;
58928;SDS011;44713;53.378;10.022;2023-04-08T00:25:13;16.17;;;9.90;;
58928;SDS011;44713;53.378;10.022;2023-04-08T00:27:38;21.80;;;10.82;;
58928;SDS011;44713;53.378;10.022;2023-04-08T00:30:04;18.02;;;9.90;;
58928;SDS011;44713;53.378;10.022;2023-04-08T00:32:30;15.88;;;10.35;;
58928;SDS011;44713;53.378;10.022;2023-04-08T00:34:56;17.75;;;10.55;;
58928;SDS011;44713;53.378;10.022;2023-04-08T00:37:22;21.50;;;11.18;;
58928;SDS011;44713;53.378;10.022;2023-04-08T00:39:47;15.55;;;11.02;;
58928;SDS011;44713;53.378;10.022;2023-04-08T00:42:12;16.60;;;10.70;;
58928;SDS011;44713;53.378;10.022;2023-04-08T00:44:38;16.60;;;10.63;;
58928;SDS011;44713;53.378;10.022;2023-04-08T00:47:03;17.48;;;10.63;;
58928;SDS011;44713;53.378;10.022;2023-04-08T00:49:31;19.88;;;11.60;;
58928;SDS011;44713;53.378;10.022;2023-04-08T00:51:58;17.05;;;11.27;;
58928;SDS011;44713;53.378;10.022;2023-04-08T00:54:24;17.50;;;10.20;;
58928;SDS011;44713;53.378;10.022;2023-04-08T00:56:50;20.33;;;11.02;;
58928;SDS011;44713;53.378;10.022;2023-04-08T00:59:16;20.50;;;11.02;;
58928;SDS011;44713;53.378;10.022;2023-04-08T01:05:06;20.85;;;11.50;;
58928;SDS011;44713;53.378;10.022;2023-04-08T01:07:38;19.38;;;11.10;;
58928;SDS011;44713;53.378;10.022;2023-04-08T01:10:11;21.88;;;10.68;;
58928;SDS011;44713;53.378;10.022;2023-04-08T01:12:41;19.13;;;10.40;;
58928;SDS011;44713;53.378;10.022;2023-04-08T01:15:11;18.05;;;10.50;;
58928;SDS011;44713;53.378;10.022;2023-04-08T01:17:37;20.58;;;11.20;;
58928;SDS011;44713;53.378;10.022;2023-04-08T01:20:04;20.92;;;11.38;;
58928;SDS011;44713;53.378;10.022;2023-04-08T01:22:45;21.40;;;11.63;;
58928;SDS011;44713;53.378;10.022;2023-04-08T01:25:18;19.40;;;11.38;;
58928;SDS011;44713;53.378;10.022;2023-04-08T01:27:47;22.63;;;11.52;;
58928;SDS011;44713;53.378;10.022;2023-04-08T01:30:13;20.67;;;12.00;;
58928;SDS011;44713;53.378;10.022;2023-04-08T01:32:41;21.50;;;11.88;;
58928;SDS011;44713;53.378;10.022;2023-04-08T01:35:08;24.65;;;12.05;;
58928;SDS011;44713;53.378;10.022;2023-04-08T01:37:35;24.17;;;11.93;;
58928;SDS011;44713;53.378;10.022;2023-04-08T01:40:02;26.80;;;12.30;;
58928;SDS011;44713;53.378;10.022;2023-04-08T01:42:28;24.40;;;12.02;;
58928;SDS011;44713;53.378;10.022;2023-04-08T01:44:56;21.35;;;11.85;;
58928;SDS011;44713;53.378;10.022;2023-04-08T01:47:23;19.42;;;11.23;;
58928;SDS011;44713;53.378;10.022;2023-04-08T01:49:49;25.02;;;12.35;;
58928;SDS011;44713;53.378;10.022;2023-04-08T01:52:17;19.00;;;11.05;;
58928;SDS011;44713;53.378;10.022;2023-04-08T01:54:44;22.45;;;11.95;;
58928;SDS011;44713;53.378;10.022;2023-04-08T01:57:11;19.25;;;11.10;;
58928;SDS011;44713;53.378;10.022;2023-04-08T01:59:41;21.08;;;11.40;;
58928;SDS011;44713;53.378;10.022;2023-04-08T02:02:08;22.33;;;11.45;;
58928;SDS011;44713;53.378;10.022;2023-04-08T02:04:35;19.00;;;10.40;;
58928;SDS011;44713;53.378;10.022;2023-04-08T02:07:00;17.63;;;8.95;;
58928;SDS011;44713;53.378;10.022;2023-04-08T02:09:27;18.65;;;9.43;;
58928;SDS011;44713;53.378;10.022;2023-04-08T02:11:52;18.80;;;9.80;;
58928;SDS011;44713;53.378;10.022;2023-04-08T02:14:18;15.50;;;9.50;;
58928;SDS011;44713;53.378;10.022;2023-04-08T02:16:53;16.90;;;9.90;;
58928;SDS011;44713;53.378;10.022;2023-04-08T02:19:28;16.13;;;9.48;;
58928;SDS011;44713;53.378;10.022;2023-04-08T02:22:00;16.00;;;9.70;;
58928;SDS011;44713;53.378;10.022;2023-04-08T02:24:32;17.63;;;10.18;;
58928;SDS011;44713;53.378;10.022;2023-04-08T02:27:00;15.35;;;9.50;;
58928;SDS011;44713;53.378;10.022;2023-04-08T02:29:28;17.08;;;9.23;;
58928;SDS011;44713;53.378;10.022;2023-04-08T02:31:56;15.38;;;8.73;;
58928;SDS011;44713;53.378;10.022;2023-04-08T02:34:22;17.10;;;9.60;;
58928;SDS011;44713;53.378;10.022;2023-04-08T02:36:49;15.93;;;9.60;;
58928;SDS011;44713;53.378;10.022;2023-04-08T02:39:16;14.30;;;9.15;;
58928;SDS011;44713;53.378;10.022;2023-04-08T02:41:41;14.68;;;8.82;;
58928;SDS011;44713;53.378;10.022;2023-04-08T02:44:07;18.30;;;9.80;;
58928;SDS011;44713;53.378;10.022;2023-04-08T02:46:35;15.40;;;9.45;;
58928;SDS011;44713;53.378;10.022;2023-04-08T02:49:01;18.88;;;9.55;;
58928;SDS011;44713;53.378;10.022;2023-04-08T02:51:27;16.42;;;9.38;;
58928;SDS011;44713;53.378;10.022;2023-04-08T02:53:52;20.52;;;9.85;;
58928;SDS011;44713;53.378;10.022;2023-04-08T02:56:18;15.55;;;9.00;;
58928;SDS011;44713;53.378;10.022;2023-04-08T02:58:43;20.77;;;10.18;;
58928;SDS011;44713;53.378;10.022;2023-04-08T03:01:09;15.25;;;9.20;;
58928;SDS011;44713;53.378;10.022;2023-04-08T03:03:35;16.13;;;9.43;;
58928;SDS011;44713;53.378;10.022;2023-04-08T03:06:00;13.27;;;9.30;;
58928;SDS011;44713;53.378;10.022;2023-04-08T03:08:26;18.00;;;10.60;;
58928;SDS011;44713;53.378;10.022;2023-04-08T03:10:51;20.15;;;10.43;;
58928;SDS011;44713;53.378;10.022;2023-04-08T03:13:17;16.88;;;10.63;;
58928;SDS011;44713;53.378;10.022;2023-04-08T03:15:42;18.05;;;10.55;;
58928;SDS011;44713;53.378;10.022;2023-04-08T03:18:07;20.83;;;11.10;;
58928;SDS011;44713;53.378;10.022;2023-04-08T03:20:33;18.42;;;10.85;;
58928;SDS011;44713;53.378;10.022;2023-04-08T03:22:58;18.55;;;10.98;;
58928;SDS011;44713;53.378;10.022;2023-04-08T03:25:24;20.88;;;11.35;;
58928;SDS011;44713;53.378;10.022;2023-04-08T03:27:50;20.15;;;12.05;;
58928;SDS011;44713;53.378;10.022;2023-04-08T03:30:15;20.75;;;11.30;;
58928;SDS011;44713;53.378;10.022;2023-04-08T03:32:41;22.30;;;11.48;;
58928;SDS011;44713;53.378;10.022;2023-04-08T03:35:06;23.35;;;11.93;;
58928;SDS011;44713;53.378;10.022;2023-04-08T03:37:32;18.65;;;11.18;;
58928;SDS011;44713;53.378;10.022;2023-04-08T03:39:57;17.13;;;11.27;;
58928;SDS011;44713;53.378;10.022;2023-04-08T03:42:23;20.33;;;11.52;;
58928;SDS011;44713;53.378;10.022;2023-04-08T03:44:48;21.30;;;11.77;;
58928;SDS011;44713;53.378;10.022;2023-04-08T03:47:14;17.42;;;10.70;;
58928;SDS011;44713;53.378;10.022;2023-04-08T03:49:39;23.05;;;9.55;;
58928;SDS011;44713;53.378;10.022;2023-04-08T03:52:04;17.33;;;10.32;;
58928;SDS011;44713;53.378;10.022;2023-04-08T03:54:30;16.95;;;8.90;;
58928;SDS011;44713;53.378;10.022;2023-04-08T03:56:55;17.75;;;10.13;;
58928;SDS011;44713;53.378;10.022;2023-04-08T03:59:20;16.10;;;9.95;;
58928;SDS011;44713;53.378;10.022;2023-04-08T04:01:47;18.30;;;9.90;;
58928;SDS011;44713;53.378;10.022;2023-04-08T04:04:12;17.50;;;11.07;;
58928;SDS011;44713;53.378;10.022;2023-04-08T04:06:37;15.90;;;10.25;;
58928;SDS011;44713;53.378;10.022;2023-04-08T04:09:03;17.98;;;10.27;;
58928;SDS011;44713;53.378;10.022;2023-04-08T04:11:28;17.55;;;10.23;;
58928;SDS011;44713;53.378;10.022;2023-04-08T04:13:54;17.40;;;10.38;;
58928;SDS011;44713;53.378;10.022;2023-04-08T04:16:19;18.05;;;10.07;;
58928;SDS011;44713;53.378;10.022;2023-04-08T04:18:44;19.08;;;11.32;;
58928;SDS011;44713;53.378;10.022;2023-04-08T04:21:10;17.73;;;10.52;;
58928;SDS011;44713;53.378;10.022;2023-04-08T04:23:35;19.23;;;11.48;;
58928;SDS011;44713;53.378;10.022;2023-04-08T04:26:01;19.65;;;11.00;;
58928;SDS011;44713;53.378;10.022;2023-04-08T04:28:26;16.38;;;10.27;;
58928;SDS011;44713;53.378;10.022;2023-04-08T04:30:51;20.52;;;11.65;;
58928;SDS011;44713;53.378;10.022;2023-04-08T04:33:17;23.17;;;12.52;;
58928;SDS011;44713;53.378;10.022;2023-04-08T04:35:42;20.65;;;11.48;;
58928;SDS011;44713;53.378;10.022;2023-04-08T04:38:08;25.77;;;12.80;;
58928;SDS011;44713;53.378;10.022;2023-04-08T04:40:36;20.42;;;11.70;;
58928;SDS011;44713;53.378;10.022;2023-04-08T04:43:02;22.90;;;12.45;;
58928;SDS011;44713;53.378;10.022;2023-04-08T04:45:27;21.27;;;12.35;;
58928;SDS011;44713;53.378;10.022;2023-04-08T04:47:53;23.63;;;13.23;;
58928;SDS011;44713;53.378;10.022;2023-04-08T04:50:18;22.05;;;12.38;;
58928;SDS011;44713;53.378;10.022;2023-04-08T04:52:43;23.88;;;13.02;;
58928;SDS011;44713;53.378;10.022;2023-04-08T04:55:10;23.83;;;13.13;;
58928;SDS011;44713;53.378;10.022;2023-04-08T04:57:35;26.00;;;14.63;;
58928;SDS011;44713;53.378;10.022;2023-04-08T05:00:01;25.60;;;13.52;;
58928;SDS011;44713;53.378;10.022;2023-04-08T05:02:26;28.80;;;14.30;;
58928;SDS011;44713;53.378;10.022;2023-04-08T05:04:51;27.38;;;13.68;;
58928;SDS011;44713;53.378;10.022;2023-04-08T05:07:20;23.08;;;12.23;;
58928;SDS011;44713;53.378;10.022;2023-04-08T05:09:46;25.88;;;14.18;;
58928;SDS011;44713;53.378;10.022;2023-04-08T05:12:11;29.50;;;15.00;;
58928;SDS011;44713;53.378;10.022;2023-04-08T05:14:37;27.00;;;13.85;;
58928;SDS011;44713;53.378;10.022;2023-04-08T05:17:02;26.80;;;15.07;;
58928;SDS011;44713;53.378;10.022;2023-04-08T05:19:29;27.40;;;14.35;;
58928;SDS011;44713;53.378;10.022;2023-04-08T05:21:55;29.77;;;15.32;;
58928;SDS011;44713;53.378;10.022;2023-04-08T05:24:20;30.25;;;14.40;;
58928;SDS011;44713;53.378;10.022;2023-04-08T05:26:46;26.55;;;15.13;;
58928;SDS011;44713;53.378;10.022;2023-04-08T05:29:12;29.40;;;14.82;;
58928;SDS011;44713;53.378;10.022;2023-04-08T05:31:38;23.02;;;13.20;;
58928;SDS011;44713;53.378;10.022;2023-04-08T05:34:03;27.33;;;14.70;;
58928;SDS011;44713;53.378;10.022;2023-04-08T05:36:28;27.08;;;13.85;;
58928;SDS011;44713;53.378;10.022;2023-04-08T05:38:55;25.15;;;13.57;;
58928;SDS011;44713;53.378;10.022;2023-04-08T05:41:21;28.05;;;14.18;;
58928;SDS011;44713;53.378;10.022;2023-04-08T05:43:46;30.00;;;13.75;;
58928;SDS011;44713;53.378;10.022;2023-04-08T05:46:11;26.88;;;14.55;;
58928;SDS011;44713;53.378;10.022;2023-04-08T05:48:37;28.35;;;14.05;;
58928;SDS011;44713;53.378;10.022;2023-04-08T05:51:02;26.67;;;13.80;;
58928;SDS011;44713;53.378;10.022;2023-04-08T05:53:27;25.20;;;13.63;;
58928;SDS011;44713;53.378;10.022;2023-04-08T05:55:53;31.42;;;15.55;;
58928;SDS011;44713;53.378;10.022;2023-04-08T05:58:18;29.40;;;15.55;;
58928;SDS011;44713;53.378;10.022;2023-04-08T06:00:44;31.83;;;15.27;;
58928;SDS011;44713;53.378;10.022;2023-04-08T06:03:11;35.28;;;16.58;;
58928;SDS011;44713;53.378;10.022;2023-04-08T06:05:36;33.25;;;16.60;;
58928;SDS011;44713;53.378;10.022;2023-04-08T06:08:01;29.83;;;15.02;;
58928;SDS011;44713;53.378;10.022;2023-04-08T06:10:27;30.05;;;15.90;;
58928;SDS011;44713;53.378;10.022;2023-04-08T06:12:52;32.50;;;16.63;;
58928;SDS011;44713;53.378;10.022;2023-04-08T06:15:17;31.15;;;16.48;;
58928;SDS011;44713;53.378;10.022;2023-04-08T06:17:43;28.10;;;15.00;;
58928;SDS011;44713;53.378;10.022;2023-04-08T06:20:08;27.98;;;15.63;;
58928;SDS011;44713;53.378;10.022;2023-04-08T06:22:34;29.92;;;16.33;;
58928;SDS011;44713;53.378;10.022;2023-04-08T06:25:00;26.45;;;14.63;;
58928;SDS011;44713;53.378;10.022;2023-04-08T06:27:26;23.58;;;15.20;;
58928;SDS011;44713;53.378;10.022;2023-04-08T06:29:51;31.25;;;16.10;;
58928;SDS011;44713;53.378;10.022;2023-04-08T06:32:17;33.50;;;16.98;;
58928;SDS011;44713;53.378;10.022;2023-04-08T06:34:46;31.40;;;16.60;;
58928;SDS011;44713;53.378;10.022;2023-04-08T06:37:12;28.60;;;16.15;;
58928;SDS011;44713;53.378;10.022;2023-04-08T06:39:37;31.35;;;16.30;;
58928;SDS011;44713;53.378;10.022;2023-04-08T06:42:03;29.52;;;16.02;;
58928;SDS011;44713;53.378;10.022;2023-04-08T06:44:40;26.88;;;15.75;;
58928;SDS011;44713;53.378;10.022;2023-04-08T06:47:05;30.70;;;15.65;;
58928;SDS011;44713;53.378;10.022;2023-04-08T06:49:30;28.08;;;16.08;;
58928;SDS011;44713;53.378;10.022;2023-04-08T06:51:56;25.90;;;16.23;;
58928;SDS011;44713;53.378;10.022;2023-04-08T06:54:21;29.63;;;16.88;;
58928;SDS011;44713;53.378;10.022;2023-04-08T06:56:46;30.33;;;15.38;;
58928;SDS011;44713;53.378;10.022;2023-04-08T06:59:12;29.38;;;15.98;;
58928;SDS011;44713;53.378;10.022;2023-04-08T07:01:37;25.73;;;14.70;;
58928;SDS011;44713;53.378;10.022;2023-04-08T07:04:02;26.98;;;15.38;;
58928;SDS011;44713;53.378;10.022;2023-04-08T07:06:28;27.33;;;15.07;;
58928;SDS011;44713;53.378;10.022;2023-04-08T07:08:53;30.80;;;15.18;;
58928;SDS011;44713;53.378;10.022;2023-04-08T07:11:18;34.13;;;16.65;;
58928;SDS011;44713;53.378;10.022;2023-04-08T07:13:43;30.85;;;15.18;;
58928;SDS011;44713;53.378;10.022;2023-04-08T07:16:11;29.20;;;14.52;;
58928;SDS011;44713;53.378;10.022;2023-04-08T07:18:36;27.55;;;15.25;;
58928;SDS011;44713;53.378;10.022;2023-04-08T07:21:02;26.23;;;14.48;;
58928;SDS011;44713;53.378;10.022;2023-04-08T07:23:27;25.73;;;13.65;;
58928;SDS011;44713;53.378;10.022;2023-04-08T07:25:53;28.13;;;14.85;;
58928;SDS011;44713;53.378;10.022;2023-04-08T07:28:18;26.45;;;14.40;;
58928;SDS011;44713;53.378;10.022;2023-04-08T07:30:44;25.92;;;13.75;;
58928;SDS011;44713;53.378;10.022;2023-04-08T07:33:09;28.65;;;14.27;;
58928;SDS011;44713;53.378;10.022;2023-04-08T07:35:35;23.23;;;13.57;;
58928;SDS011;44713;53.378;10.022;2023-04-08T07:38:00;19.38;;;12.57;;
58928;SDS011;44713;53.378;10.022;2023-04-08T07:40:25;23.00;;;13.73;;
58928;SDS011;44713;53.378;10.022;2023-04-08T07:42:51;23.65;;;13.65;;
58928;SDS011;44713;53.378;10.022;2023-04-08T07:45:17;26.17;;;13.95;;
58928;SDS011;44713;53.378;10.022;2023-04-08T07:47:42;24.00;;;13.80;;
58928;SDS011;44713;53.378;10.022;2023-04-08T07:50:08;24.38;;;13.90;;
58928;SDS011;44713;53.378;10.022;2023-04-08T07:52:34;26.42;;;13.45;;
58928;SDS011;44713;53.378;10.022;2023-04-08T07:54:59;22.70;;;13.45;;
58928;SDS011;44713;53.378;10.022;2023-04-08T07:57:26;25.25;;;13.38;;
58928;SDS011;44713;53.378;10.022;2023-04-08T07:59:51;26.25;;;12.75;;
58928;SDS011;44713;53.378;10.022;2023-04-08T08:02:16;23.20;;;13.13;;
58928;SDS011;44713;53.378;10.022;2023-04-08T08:04:42;24.08;;;13.35;;
58928;SDS011;44713;53.378;10.022;2023-04-08T08:07:07;25.88;;;12.73;;
58928;SDS011;44713;53.378;10.022;2023-04-08T08:09:33;23.02;;;13.18;;
58928;SDS011;44713;53.378;10.022;2023-04-08T08:11:58;23.50;;;13.73;;
58928;SDS011;44713;53.378;10.022;2023-04-08T08:14:23;26.40;;;14.05;;
58928;SDS011;44713;53.378;10.022;2023-04-08T08:16:50;26.27;;;14.40;;
58928;SDS011;44713;53.378;10.022;2023-04-08T08:19:16;31.92;;;13.60;;
58928;SDS011;44713;53.378;10.022;2023-04-08T08:21:41;24.10;;;13.10;;
58928;SDS011;44713;53.378;10.022;2023-04-08T08:24:07;23.65;;;13.48;;
58928;SDS011;44713;53.378;10.022;2023-04-08T08:26:35;27.20;;;14.30;;
58928;SDS011;44713;53.378;10.022;2023-04-08T08:29:01;29.00;;;14.55;;
58928;SDS011;44713;53.378;10.022;2023-04-08T08:31:27;24.63;;;13.85;;
58928;SDS011;44713;53.378;10.022;2023-04-08T08:33:53;23.30;;;12.52;;
58928;SDS011;44713;53.378;10.022;2023-04-08T08:36:18;22.95;;;12.55;;
58928;SDS011;44713;53.378;10.022;2023-04-08T08:38:43;23.58;;;13.32;;
58928;SDS011;44713;53.378;10.022;2023-04-08T08:41:09;21.00;;;12.68;;
58928;SDS011;44713;53.378;10.022;2023-04-08T08:43:34;21.45;;;12.82;;
58928;SDS011;44713;53.378;10.022;2023-04-08T08:46:02;28.10;;;13.77;;
58928;SDS011;44713;53.378;10.022;2023-04-08T08:48:27;22.77;;;13.27;;
58928;SDS011;44713;53.378;10.022;2023-04-08T08:50:52;28.00;;;14.40;;
58928;SDS011;44713;53.378;10.022;2023-04-08T08:53:18;24.80;;;14.05;;
58928;SDS011;44713;53.378;10.022;2023-04-08T08:55:44;27.83;;;14.80;;
58928;SDS011;44713;53.378;10.022;2023-04-08T08:58:09;26.88;;;14.10;;
58928;SDS011;44713;53.378;10.022;2023-04-08T09:00:39;29.92;;;14.63;;
58928;SDS011;44713;53.378;10.022;2023-04-08T09:03:13;29.23;;;14.70;;
58928;SDS011;44713;53.378;10.022;2023-04-08T09:05:55;33.85;;;15.60;;
58928;SDS011;44713;53.378;10.022;2023-04-08T09:08:22;25.77;;;13.60;;
58928;SDS011;44713;53.378;10.022;2023-04-08T09:10:48;26.65;;;13.70;;
58928;SDS011;44713;53.378;10.022;2023-04-08T09:13:13;23.15;;;13.15;;
58928;SDS011;44713;53.378;10.022;2023-04-08T09:15:59;29.83;;;14.57;;
58928;SDS011;44713;53.378;10.022;2023-04-08T09:18:27;30.52;;;15.60;;
58928;SDS011;44713;53.378;10.022;2023-04-08T09:20:53;28.23;;;15.40;;
58928;SDS011;44713;53.378;10.022;2023-04-08T09:23:18;23.70;;;14.55;;
58928;SDS011;44713;53.378;10.022;2023-04-08T09:25:43;26.45;;;14.70;;
58928;SDS011;44713;53.378;10.022;2023-04-08T09:28:27;22.65;;;13.25;;
58928;SDS011;44713;53.378;10.022;2023-04-08T09:30:52;25.33;;;12.65;;
58928;SDS011;44713;53.378;10.022;2023-04-08T09:33:18;21.95;;;12.05;;
58928;SDS011;44713;53.378;10.022;2023-04-08T09:35:43;22.50;;;12.68;;
58928;SDS011;44713;53.378;10.022;2023-04-08T09:38:10;22.77;;;13.52;;
58928;SDS011;44713;53.378;10.022;2023-04-08T09:40:36;25.50;;;13.15;;
58928;SDS011;44713;53.378;10.022;2023-04-08T09:43:04;23.65;;;13.73;;
58928;SDS011;44713;53.378;10.022;2023-04-08T09:45:31;24.08;;;13.55;;
58928;SDS011;44713;53.378;10.022;2023-04-08T09:50:49;30.73;;;14.68;;
58928;SDS011;44713;53.378;10.022;2023-04-08T09:53:23;28.73;;;15.23;;
58928;SDS011;44713;53.378;10.022;2023-04-08T09:55:54;28.02;;;15.50;;
58928;SDS011;44713;53.378;10.022;2023-04-08T09:58:24;27.60;;;14.90;;
58928;SDS011;44713;53.378;10.022;2023-04-08T10:00:53;25.70;;;14.38;;
58928;SDS011;44713;53.378;10.022;2023-04-08T10:05:55;22.70;;;13.75;;
58928;SDS011;44713;53.378;10.022;2023-04-08T10:08:22;24.15;;;13.35;;
58928;SDS011;44713;53.378;10.022;2023-04-08T10:10:48;30.20;;;15.43;;
58928;SDS011;44713;53.378;10.022;2023-04-08T10:13:14;26.25;;;13.43;;
58928;SDS011;44713;53.378;10.022;2023-04-08T10:15:40;31.40;;;13.50;;
58928;SDS011;44713;53.378;10.022;2023-04-08T10:25:33;26.92;;;14.15;;
58928;SDS011;44713;53.378;10.022;2023-04-08T10:27:59;23.10;;;13.13;;
58928;SDS011;44713;53.378;10.022;2023-04-08T10:32:57;25.20;;;13.40;;
58928;SDS011;44713;53.378;10.022;2023-04-08T10:35:30;21.63;;;13.30;;
58928;SDS011;44713;53.378;10.022;2023-04-08T10:37:57;23.65;;;13.18;;
58928;SDS011;44713;53.378;10.022;2023-04-08T10:40:23;21.35;;;13.70;;
58928;SDS011;44713;53.378;10.022;2023-04-08T10:45:20;21.08;;;12.60;;
58928;SDS011;44713;53.378;10.022;2023-04-08T10:47:46;23.98;;;13.57;;
58928;SDS011;44713;53.378;10.022;2023-04-08T10:50:15;21.20;;;12.88;;
58928;SDS011;44713;53.378;10.022;2023-04-08T10:52:48;21.65;;;13.18;;
58928;SDS011;44713;53.378;10.022;2023-04-08T10:55:15;20.75;;;11.93;;
58928;SDS011;44713;53.378;10.022;2023-04-08T10:57:43;24.40;;;12.75;;
58928;SDS011;44713;53.378;10.022;2023-04-08T11:00:14;20.90;;;11.70;;
58928;SDS011;44713;53.378;10.022;2023-04-08T11:02:42;18.20;;;11.75;;
58928;SDS011;44713;53.378;10.022;2023-04-08T11:05:08;19.27;;;11.50;;
58928;SDS011;44713;53.378;10.022;2023-04-08T11:07:40;21.02;;;12.35;;
58928;SDS011;44713;53.378;10.022;2023-04-08T11:10:06;19.33;;;11.52;;
58928;SDS011;44713;53.378;10.022;2023-04-08T11:12:33;25.60;;;13.07;;
58928;SDS011;44713;53.378;10.022;2023-04-08T11:15:00;20.50;;;12.65;;
58928;SDS011;44713;53.378;10.022;2023-04-08T11:17:26;23.88;;;13.20;;
58928;SDS011;44713;53.378;10.022;2023-04-08T11:19:52;22.60;;;12.32;;
58928;SDS011;44713;53.378;10.022;2023-04-08T11:22:19;23.08;;;13.13;;
58928;SDS011;44713;53.378;10.022;2023-04-08T11:24:44;22.40;;;14.27;;
58928;SDS011;44713;53.378;10.022;2023-04-08T11:27:10;24.33;;;14.88;;
58928;SDS011;44713;53.378;10.022;2023-04-08T11:29:35;28.85;;;15.65;;
58928;SDS011;44713;53.378;10.022;2023-04-08T11:32:02;26.42;;;16.05;;
58928;SDS011;44713;53.378;10.022;2023-04-08T11:34:27;31.25;;;17.17;;
58928;SDS011;44713;53.378;10.022;2023-04-08T11:36:54;30.38;;;17.83;;
58928;SDS011;44713;53.378;10.022;2023-04-08T11:39:22;30.45;;;17.15;;
58928;SDS011;44713;53.378;10.022;2023-04-08T11:41:48;28.30;;;16.25;;
58928;SDS011;44713;53.378;10.022;2023-04-08T11:44:14;27.38;;;16.20;;
58928;SDS011;44713;53.378;10.022;2023-04-08T11:46:40;31.05;;;16.90;;
58928;SDS011;44713;53.378;10.022;2023-04-08T11:49:06;24.75;;;15.02;;
58928;SDS011;44713;53.378;10.022;2023-04-08T11:51:34;27.35;;;15.43;;
58928;SDS011;44713;53.378;10.022;2023-04-08T11:54:27;27.73;;;14.33;;
58928;SDS011;44713;53.378;10.022;2023-04-08T11:56:53;23.67;;;15.25;;
58928;SDS011;44713;53.378;10.022;2023-04-08T11:59:20;27.38;;;15.05;;
58928;SDS011;44713;53.378;10.022;2023-04-08T12:01:45;27.55;;;15.07;;
58928;SDS011;44713;53.378;10.022;2023-04-08T12:04:11;28.08;;;16.15;;
58928;SDS011;44713;53.378;10.022;2023-04-08T12:06:36;27.35;;;16.33;;
58928;SDS011;44713;53.378;10.022;2023-04-08T12:09:01;28.83;;;16.02;;
58928;SDS011;44713;53.378;10.022;2023-04-08T12:11:27;28.00;;;16.13;;
58928;SDS011;44713;53.378;10.022;2023-04-08T12:13:52;24.25;;;14.00;;
58928;SDS011;44713;53.378;10.022;2023-04-08T12:16:18;24.83;;;14.85;;
58928;SDS011;44713;53.378;10.022;2023-04-08T12:18:44;27.52;;;15.10;;
58928;SDS011;44713;53.378;10.022;2023-04-08T12:21:10;28.58;;;15.15;;
58928;SDS011;44713;53.378;10.022;2023-04-08T12:23:36;28.27;;;15.80;;
58928;SDS011;44713;53.378;10.022;2023-04-08T12:26:02;26.15;;;15.93;;
58928;SDS011;44713;53.378;10.022;2023-04-08T12:28:27;28.85;;;16.80;;
58928;SDS011;44713;53.378;10.022;2023-04-08T12:30:53;32.55;;;17.85;;
58928;SDS011;44713;53.378;10.022;2023-04-08T12:33:18;31.77;;;19.05;;
58928;SDS011;44713;53.378;10.022;2023-04-08T12:35:44;31.90;;;18.00;;
58928;SDS011;44713;53.378;10.022;2023-04-08T12:38:09;32.75;;;19.98;;
58928;SDS011;44713;53.378;10.022;2023-04-08T12:40:34;33.58;;;18.23;;
58928;SDS011;44713;53.378;10.022;2023-04-08T12:43:00;29.13;;;17.85;;
58928;SDS011;44713;53.378;10.022;2023-04-08T12:45:25;31.55;;;18.10;;
58928;SDS011;44713;53.378;10.022;2023-04-08T12:47:50;32.08;;;16.40;;
58928;SDS011;44713;53.378;10.022;2023-04-08T12:50:16;26.52;;;16.48;;
58928;SDS011;44713;53.378;10.022;2023-04-08T12:52:41;31.25;;;17.75;;
58928;SDS011;44713;53.378;10.022;2023-04-08T12:55:07;28.38;;;16.58;;
58928;SDS011;44713;53.378;10.022;2023-04-08T12:57:32;29.77;;;17.17;;
58928;SDS011;44713;53.378;10.022;2023-04-08T12:59:58;28.95;;;16.92;;
58928;SDS011;44713;53.378;10.022;2023-04-08T13:02:23;26.35;;;17.15;;
58928;SDS011;44713;53.378;10.022;2023-04-08T13:04:49;29.45;;;16.83;;
58928;SDS011;44713;53.378;10.022;2023-04-08T13:07:17;27.23;;;18.25;;
58928;SDS011;44713;53.378;10.022;2023-04-08T13:09:42;29.92;;;17.48;;
58928;SDS011;44713;53.378;10.022;2023-04-08T13:12:08;30.73;;;19.83;;
58928;SDS011;44713;53.378;10.022;2023-04-08T13:14:33;35.25;;;20.25;;
58928;SDS011;44713;53.378;10.022;2023-04-08T13:16:58;33.85;;;20.05;;
58928;SDS011;44713;53.378;10.022;2023-04-08T13:19:24;36.03;;;20.17;;
58928;SDS011;44713;53.378;10.022;2023-04-08T13:21:49;35.22;;;22.80;;
58928;SDS011;44713;53.378;10.022;2023-04-08T13:24:14;34.08;;;22.17;;
58928;SDS011;44713;53.378;10.022;2023-04-08T13:26:40;38.40;;;24.02;;
58928;SDS011;44713;53.378;10.022;2023-04-08T13:29:06;42.03;;;26.08;;
58928;SDS011;44713;53.378;10.022;2023-04-08T13:31:31;47.72;;;29.58;;
58928;SDS011;44713;53.378;10.022;2023-04-08T13:33:56;40.63;;;25.30;;
58928;SDS011;44713;53.378;10.022;2023-04-08T13:36:22;40.22;;;23.35;;
58928;SDS011;44713;53.378;10.022;2023-04-08T13:38:47;34.60;;;20.85;;
58928;SDS011;44713;53.378;10.022;2023-04-08T13:41:12;41.20;;;22.00;;
58928;SDS011;44713;53.378;10.022;2023-04-08T13:43:38;36.30;;;21.27;;
58928;SDS011;44713;53.378;10.022;2023-04-08T13:46:03;40.00;;;21.98;;
58928;SDS011;44713;53.378;10.022;2023-04-08T13:48:28;35.85;;;21.75;;
58928;SDS011;44713;53.378;10.022;2023-04-08T13:50:54;33.28;;;20.30;;
58928;SDS011;44713;53.378;10.022;2023-04-08T13:53:19;32.70;;;21.17;;
58928;SDS011;44713;53.378;10.022;2023-04-08T13:55:44;32.15;;;20.48;;
58928;SDS011;44713;53.378;10.022;2023-04-08T13:58:10;34.78;;;21.05;;
58928;SDS011;44713;53.378;10.022;2023-04-08T14:00:35;36.35;;;20.75;;
58928;SDS011;44713;53.378;10.022;2023-04-08T14:03:00;37.15;;;23.27;;
58928;SDS011;44713;53.378;10.022;2023-04-08T14:05:26;43.63;;;25.50;;
58928;SDS011;44713;53.378;10.022;2023-04-08T14:07:51;38.10;;;23.45;;
58928;SDS011;44713;53.378;10.022;2023-04-08T14:10:16;35.92;;;23.17;;
58928;SDS011;44713;53.378;10.022;2023-04-08T14:12:42;39.88;;;23.65;;
58928;SDS011;44713;53.378;10.022;2023-04-08T14:15:07;39.05;;;23.80;;
58928;SDS011;44713;53.378;10.022;2023-04-08T14:17:33;35.03;;;22.17;;
58928;SDS011;44713;53.378;10.022;2023-04-08T14:20:00;33.88;;;20.63;;
58928;SDS011;44713;53.378;10.022;2023-04-08T14:22:25;31.27;;;18.77;;
58928;SDS011;44713;53.378;10.022;2023-04-08T14:24:51;33.95;;;20.65;;
58928;SDS011;44713;53.378;10.022;2023-04-08T14:27:16;32.03;;;20.75;;